Academy, SD

6:40 AM CST on December 05, 2016 (GMT -0600)
Platte,SD | | Change Station

Elev 1601 ft 43.39 °N, 98.84 °W | Updated 20 seconds ago

Clear
Clear
34.0 °F
Feels Like 29 °F
N
5.8
Wind Variable Wind from SSE

Today
High -- | Low -- °F
--% Chance of Precip.
Yesterday
High -- | Low -- °F
Precip. -- in
Pressure 29.50 in
Visibility 10.0 miles
Clouds Clear
Windchill 29 °F
Dew Point 26 °F
Humidity 72%
Rainfall 0.00 in
Snow Depth Not available.
7:54 AM 5:00 PM
Waxing Crescent, 31% visible
METAR K9V9 051215Z AUTO 18003KT 10SM CLR 00/M04 A2950 RMK AO2 T10051036
Pressure 29.50 in
Visibility 10.0 miles
Clouds Clear
Windchill 29 °F
Dew Point 26 °F
Humidity 72%
Rainfall 0.00 in
Snow Depth Not available.
7:54 AM 5:00 PM
Waxing Crescent, 31% visible
METAR K9V9 051215Z AUTO 18003KT 10SM CLR 00/M04 A2950 RMK AO2 T10051036

10-Day Weather Forecast

Almanac

Astronomy

Dec. 05, 2016 Rise Set
Actual Time
Civil Twilight
Nautical Twilight
Astronomical Twilight
Moon
Length of Visible Light
Length of Day
Tomorrow will be .
, % of the Moon is Illuminated

Today's Extremes

State Highs State Lows

Community

WunderPhotos

Upload Photos

1,955,777 photos uploaded!

WunderBlog® & News

Nearby

Air Quality

  Air Quality AQ Index Pollutant
Not available.

Snow Depth

Station Depth Elevation

Earthquake Activity

City Distance Mag. Time & Date
Minimum magnitude displayed is 2.5.

Coastal Water Temperatures

Place Temperature

Stations

Nearby Weather Stations

Station Location Temp. Windchill Dew Point Humidity Wind Precip. Elev Updated Type
                   

Watches & Warnings

There are currently no watches in effect.